Terminal Aerodrome Forecast
Issued by NWS

Home | Current Version | Previous Version | Text Only | Print | Product List | Glossary On
Versions: 1 2 3 4 5 6 7 8 9 10 11 12 13 14 15 16 17 18 19 20 21
759
FTUS42 KTBW 070538 AAB
TAFRSW
TAF AMD
KRSW 070538Z 0706/0806 33010KT P6SM VCSH BKN025 OVC100
     FM070800 34014KT P6SM BKN035
     FM071400 34018G25KT P6SM FEW050
     FM080000 32011KT P6SM FEW250
     FM080500 33004KT P6SM SKC=

USA.gov is the U.S. government's official web portal to all federal, state and local government web resources and services.